sensor_id;sensor_type;location;lat;lon;timestamp;temperature;humidity
9116;DHT22;4593;53.652;10.168;2023-05-10T00:00:23;13.70;56.00
9116;DHT22;4593;53.652;10.168;2023-05-10T00:02:49;13.60;56.20
9116;DHT22;4593;53.652;10.168;2023-05-10T00:05:15;13.60;56.10
9116;DHT22;4593;53.652;10.168;2023-05-10T00:07:41;13.60;56.50
9116;DHT22;4593;53.652;10.168;2023-05-10T00:10:10;13.60;56.40
9116;DHT22;4593;53.652;10.168;2023-05-10T00:12:36;13.60;56.60
9116;DHT22;4593;53.652;10.168;2023-05-10T00:15:03;13.50;57.10
9116;DHT22;4593;53.652;10.168;2023-05-10T00:17:28;13.50;56.70
9116;DHT22;4593;53.652;10.168;2023-05-10T00:19:54;13.50;57.10
9116;DHT22;4593;53.652;10.168;2023-05-10T00:22:20;13.40;56.80
9116;DHT22;4593;53.652;10.168;2023-05-10T00:24:46;13.50;56.70
9116;DHT22;4593;53.652;10.168;2023-05-10T00:27:12;13.40;57.00
9116;DHT22;4593;53.652;10.168;2023-05-10T00:29:37;13.40;57.40
9116;DHT22;4593;53.652;10.168;2023-05-10T00:32:03;13.40;57.00
9116;DHT22;4593;53.652;10.168;2023-05-10T00:34:29;13.30;57.60
9116;DHT22;4593;53.652;10.168;2023-05-10T00:36:54;13.30;57.90
9116;DHT22;4593;53.652;10.168;2023-05-10T00:39:20;13.20;57.80
9116;DHT22;4593;53.652;10.168;2023-05-10T00:41:45;13.20;58.10
9116;DHT22;4593;53.652;10.168;2023-05-10T00:44:11;13.10;58.00
9116;DHT22;4593;53.652;10.168;2023-05-10T00:46:37;13.10;58.40
9116;DHT22;4593;53.652;10.168;2023-05-10T00:49:03;13.10;58.40
9116;DHT22;4593;53.652;10.168;2023-05-10T00:51:29;13.10;58.40
9116;DHT22;4593;53.652;10.168;2023-05-10T00:53:56;13.00;58.50
9116;DHT22;4593;53.652;10.168;2023-05-10T00:56:22;13.00;58.50
9116;DHT22;4593;53.652;10.168;2023-05-10T00:58:50;13.00;59.30
9116;DHT22;4593;53.652;10.168;2023-05-10T01:01:16;12.90;59.10
9116;DHT22;4593;53.652;10.168;2023-05-10T01:03:41;12.90;59.50
9116;DHT22;4593;53.652;10.168;2023-05-10T01:06:08;12.80;59.60
9116;DHT22;4593;53.652;10.168;2023-05-10T01:08:35;12.80;59.70
9116;DHT22;4593;53.652;10.168;2023-05-10T01:11:01;12.70;59.80
9116;DHT22;4593;53.652;10.168;2023-05-10T01:15:53;12.70;60.00
9116;DHT22;4593;53.652;10.168;2023-05-10T01:18:20;12.70;60.10
9116;DHT22;4593;53.652;10.168;2023-05-10T01:20:50;12.60;60.30
9116;DHT22;4593;53.652;10.168;2023-05-10T01:34:35;12.50;60.80
9116;DHT22;4593;53.652;10.168;2023-05-10T01:37:07;12.40;61.00
9116;DHT22;4593;53.652;10.168;2023-05-10T01:39:47;12.40;60.70
9116;DHT22;4593;53.652;10.168;2023-05-10T01:42:25;12.40;60.90
9116;DHT22;4593;53.652;10.168;2023-05-10T01:44:58;12.40;60.90
9116;DHT22;4593;53.652;10.168;2023-05-10T01:47:36;12.40;60.70
9116;DHT22;4593;53.652;10.168;2023-05-10T01:50:05;12.40;61.20
9116;DHT22;4593;53.652;10.168;2023-05-10T01:52:41;12.40;61.30
9116;DHT22;4593;53.652;10.168;2023-05-10T01:55:13;12.30;61.70
9116;DHT22;4593;53.652;10.168;2023-05-10T01:57:42;12.30;61.70
9116;DHT22;4593;53.652;10.168;2023-05-10T02:00:09;12.30;61.90
9116;DHT22;4593;53.652;10.168;2023-05-10T02:02:39;12.20;61.70
9116;DHT22;4593;53.652;10.168;2023-05-10T02:05:06;12.30;61.90
9116;DHT22;4593;53.652;10.168;2023-05-10T02:07:36;12.20;61.70
9116;DHT22;4593;53.652;10.168;2023-05-10T02:10:04;12.20;61.80
9116;DHT22;4593;53.652;10.168;2023-05-10T02:12:34;12.20;62.00
9116;DHT22;4593;53.652;10.168;2023-05-10T02:15:02;12.20;62.30
9116;DHT22;4593;53.652;10.168;2023-05-10T02:17:31;12.20;62.40
9116;DHT22;4593;53.652;10.168;2023-05-10T02:19:58;12.10;62.30
9116;DHT22;4593;53.652;10.168;2023-05-10T02:22:26;12.10;62.90
9116;DHT22;4593;53.652;10.168;2023-05-10T02:24:54;12.00;63.50
9116;DHT22;4593;53.652;10.168;2023-05-10T02:27:20;12.00;63.50
9116;DHT22;4593;53.652;10.168;2023-05-10T02:29:50;12.00;63.60
9116;DHT22;4593;53.652;10.168;2023-05-10T02:32:17;12.00;63.40
9116;DHT22;4593;53.652;10.168;2023-05-10T02:34:44;12.00;63.10
9116;DHT22;4593;53.652;10.168;2023-05-10T02:37:13;11.90;63.40
9116;DHT22;4593;53.652;10.168;2023-05-10T02:39:40;11.90;63.30
9116;DHT22;4593;53.652;10.168;2023-05-10T02:42:18;11.80;63.30
9116;DHT22;4593;53.652;10.168;2023-05-10T02:44:50;11.90;63.20
9116;DHT22;4593;53.652;10.168;2023-05-10T02:47:17;11.90;63.70
9116;DHT22;4593;53.652;10.168;2023-05-10T02:49:43;11.90;63.50
9116;DHT22;4593;53.652;10.168;2023-05-10T02:52:09;11.80;63.60
9116;DHT22;4593;53.652;10.168;2023-05-10T02:54:45;11.70;65.40
9116;DHT22;4593;53.652;10.168;2023-05-10T02:57:15;11.70;64.20
9116;DHT22;4593;53.652;10.168;2023-05-10T02:59:41;11.70;64.40
9116;DHT22;4593;53.652;10.168;2023-05-10T03:02:12;11.70;64.40
9116;DHT22;4593;53.652;10.168;2023-05-10T03:04:38;11.70;64.30
9116;DHT22;4593;53.652;10.168;2023-05-10T03:07:04;11.70;64.40
9116;DHT22;4593;53.652;10.168;2023-05-10T03:09:31;11.70;64.50
9116;DHT22;4593;53.652;10.168;2023-05-10T03:17:25;11.60;65.00
9116;DHT22;4593;53.652;10.168;2023-05-10T03:20:03;11.60;65.10
9116;DHT22;4593;53.652;10.168;2023-05-10T03:22:37;11.60;65.30
9116;DHT22;4593;53.652;10.168;2023-05-10T03:25:06;11.60;65.30
9116;DHT22;4593;53.652;10.168;2023-05-10T03:27:32;11.50;65.60
9116;DHT22;4593;53.652;10.168;2023-05-10T03:29:59;11.50;65.60
9116;DHT22;4593;53.652;10.168;2023-05-10T03:32:29;11.50;65.30
9116;DHT22;4593;53.652;10.168;2023-05-10T03:34:55;11.50;66.00
9116;DHT22;4593;53.652;10.168;2023-05-10T03:37:21;11.50;66.00
9116;DHT22;4593;53.652;10.168;2023-05-10T03:39:47;11.50;66.50
9116;DHT22;4593;53.652;10.168;2023-05-10T03:42:12;11.50;66.20
9116;DHT22;4593;53.652;10.168;2023-05-10T03:44:41;11.50;65.90
9116;DHT22;4593;53.652;10.168;2023-05-10T03:47:07;11.50;65.60
9116;DHT22;4593;53.652;10.168;2023-05-10T03:49:32;11.50;65.50
9116;DHT22;4593;53.652;10.168;2023-05-10T03:51:58;11.50;66.00
9116;DHT22;4593;53.652;10.168;2023-05-10T03:54:24;11.50;66.30
9116;DHT22;4593;53.652;10.168;2023-05-10T03:56:49;11.50;66.10
9116;DHT22;4593;53.652;10.168;2023-05-10T03:59:15;11.50;66.00
9116;DHT22;4593;53.652;10.168;2023-05-10T04:01:40;11.60;65.70
9116;DHT22;4593;53.652;10.168;2023-05-10T04:04:06;11.60;65.60
9116;DHT22;4593;53.652;10.168;2023-05-10T04:06:32;11.70;65.60
9116;DHT22;4593;53.652;10.168;2023-05-10T04:08:58;11.70;65.50
9116;DHT22;4593;53.652;10.168;2023-05-10T04:11:25;11.70;65.40
9116;DHT22;4593;53.652;10.168;2023-05-10T04:13:51;11.80;65.20
9116;DHT22;4593;53.652;10.168;2023-05-10T04:16:17;11.90;65.30
9116;DHT22;4593;53.652;10.168;2023-05-10T04:18:42;11.80;64.90
9116;DHT22;4593;53.652;10.168;2023-05-10T04:21:14;11.90;64.80
9116;DHT22;4593;53.652;10.168;2023-05-10T04:23:40;12.00;64.60
9116;DHT22;4593;53.652;10.168;2023-05-10T04:26:06;12.00;64.40
9116;DHT22;4593;53.652;10.168;2023-05-10T04:28:32;12.00;64.70
9116;DHT22;4593;53.652;10.168;2023-05-10T04:31:02;12.00;64.80
9116;DHT22;4593;53.652;10.168;2023-05-10T04:33:28;12.00;65.10
9116;DHT22;4593;53.652;10.168;2023-05-10T04:35:54;12.00;64.40
9116;DHT22;4593;53.652;10.168;2023-05-10T04:38:19;12.10;64.50
9116;DHT22;4593;53.652;10.168;2023-05-10T04:40:45;12.10;63.90
9116;DHT22;4593;53.652;10.168;2023-05-10T04:43:11;12.20;64.00
9116;DHT22;4593;53.652;10.168;2023-05-10T04:45:36;12.20;64.30
9116;DHT22;4593;53.652;10.168;2023-05-10T04:48:02;12.30;64.50
9116;DHT22;4593;53.652;10.168;2023-05-10T04:50:28;12.30;63.90
9116;DHT22;4593;53.652;10.168;2023-05-10T04:52:53;12.20;63.80
9116;DHT22;4593;53.652;10.168;2023-05-10T04:55:19;12.30;64.20
9116;DHT22;4593;53.652;10.168;2023-05-10T04:57:45;12.40;63.80
9116;DHT22;4593;53.652;10.168;2023-05-10T05:00:11;12.40;63.90
9116;DHT22;4593;53.652;10.168;2023-05-10T05:02:37;12.50;63.80
9116;DHT22;4593;53.652;10.168;2023-05-10T05:05:03;12.60;63.30
9116;DHT22;4593;53.652;10.168;2023-05-10T05:07:29;12.70;63.50
9116;DHT22;4593;53.652;10.168;2023-05-10T05:09:56;12.70;62.60
9116;DHT22;4593;53.652;10.168;2023-05-10T05:12:21;12.70;62.40
9116;DHT22;4593;53.652;10.168;2023-05-10T05:14:47;12.80;62.90
9116;DHT22;4593;53.652;10.168;2023-05-10T05:17:12;12.80;62.10
9116;DHT22;4593;53.652;10.168;2023-05-10T05:19:38;12.90;62.20
9116;DHT22;4593;53.652;10.168;2023-05-10T05:22:06;13.10;62.00
9116;DHT22;4593;53.652;10.168;2023-05-10T05:24:35;13.10;61.50
9116;DHT22;4593;53.652;10.168;2023-05-10T05:27:03;13.10;61.40
9116;DHT22;4593;53.652;10.168;2023-05-10T05:29:29;13.30;61.80
9116;DHT22;4593;53.652;10.168;2023-05-10T05:31:55;13.40;61.50
9116;DHT22;4593;53.652;10.168;2023-05-10T05:34:20;13.30;60.80
9116;DHT22;4593;53.652;10.168;2023-05-10T05:36:47;13.40;61.30
9116;DHT22;4593;53.652;10.168;2023-05-10T05:39:13;13.50;60.90
9116;DHT22;4593;53.652;10.168;2023-05-10T05:41:39;13.50;60.60
9116;DHT22;4593;53.652;10.168;2023-05-10T05:44:05;13.60;60.30
9116;DHT22;4593;53.652;10.168;2023-05-10T05:46:30;13.70;59.70
9116;DHT22;4593;53.652;10.168;2023-05-10T05:48:56;13.80;59.70
9116;DHT22;4593;53.652;10.168;2023-05-10T05:51:22;13.80;59.40
9116;DHT22;4593;53.652;10.168;2023-05-10T05:53:47;13.80;60.20
9116;DHT22;4593;53.652;10.168;2023-05-10T05:56:13;13.90;60.30
9116;DHT22;4593;53.652;10.168;2023-05-10T05:58:39;14.00;59.80
9116;DHT22;4593;53.652;10.168;2023-05-10T06:01:05;14.10;59.40
9116;DHT22;4593;53.652;10.168;2023-05-10T06:03:30;14.10;59.00
9116;DHT22;4593;53.652;10.168;2023-05-10T06:05:56;14.20;59.50
9116;DHT22;4593;53.652;10.168;2023-05-10T06:08:22;14.00;58.30
9116;DHT22;4593;53.652;10.168;2023-05-10T06:10:47;14.00;59.30
9116;DHT22;4593;53.652;10.168;2023-05-10T06:13:13;14.10;59.30
9116;DHT22;4593;53.652;10.168;2023-05-10T06:15:39;14.20;59.90
9116;DHT22;4593;53.652;10.168;2023-05-10T06:18:05;14.30;58.50
9116;DHT22;4593;53.652;10.168;2023-05-10T06:20:31;14.50;58.70
9116;DHT22;4593;53.652;10.168;2023-05-10T06:22:57;14.30;57.90
9116;DHT22;4593;53.652;10.168;2023-05-10T06:25:23;14.40;58.60
9116;DHT22;4593;53.652;10.168;2023-05-10T06:27:49;14.40;57.80
9116;DHT22;4593;53.652;10.168;2023-05-10T06:30:14;14.60;57.70
9116;DHT22;4593;53.652;10.168;2023-05-10T06:32:41;14.80;57.30
9116;DHT22;4593;53.652;10.168;2023-05-10T06:35:07;14.80;57.80
9116;DHT22;4593;53.652;10.168;2023-05-10T06:37:33;15.00;56.70
9116;DHT22;4593;53.652;10.168;2023-05-10T06:40:00;15.40;56.20
9116;DHT22;4593;53.652;10.168;2023-05-10T06:42:26;15.60;56.60
9116;DHT22;4593;53.652;10.168;2023-05-10T06:44:52;15.90;54.90
9116;DHT22;4593;53.652;10.168;2023-05-10T06:47:18;16.00;54.10
9116;DHT22;4593;53.652;10.168;2023-05-10T06:49:44;16.10;54.20
9116;DHT22;4593;53.652;10.168;2023-05-10T06:52:09;15.90;54.30
9116;DHT22;4593;53.652;10.168;2023-05-10T06:54:35;15.90;53.30
9116;DHT22;4593;53.652;10.168;2023-05-10T06:57:01;16.00;54.60
9116;DHT22;4593;53.652;10.168;2023-05-10T06:59:28;16.20;54.60
9116;DHT22;4593;53.652;10.168;2023-05-10T07:01:54;16.60;53.90
9116;DHT22;4593;53.652;10.168;2023-05-10T07:04:19;16.90;52.30
9116;DHT22;4593;53.652;10.168;2023-05-10T07:06:45;17.30;51.70
9116;DHT22;4593;53.652;10.168;2023-05-10T07:09:11;17.50;52.40
9116;DHT22;4593;53.652;10.168;2023-05-10T07:11:38;17.60;50.10
9116;DHT22;4593;53.652;10.168;2023-05-10T07:14:04;17.30;49.50
9116;DHT22;4593;53.652;10.168;2023-05-10T07:16:30;17.40;50.40
9116;DHT22;4593;53.652;10.168;2023-05-10T07:18:56;17.40;50.60
9116;DHT22;4593;53.652;10.168;2023-05-10T07:21:21;17.40;50.80
9116;DHT22;4593;53.652;10.168;2023-05-10T07:23:49;17.60;49.90
9116;DHT22;4593;53.652;10.168;2023-05-10T07:26:15;17.80;50.00
9116;DHT22;4593;53.652;10.168;2023-05-10T07:28:41;17.70;49.00
9116;DHT22;4593;53.652;10.168;2023-05-10T07:31:07;17.50;50.80
9116;DHT22;4593;53.652;10.168;2023-05-10T07:33:33;17.60;50.60
9116;DHT22;4593;53.652;10.168;2023-05-10T07:35:58;17.80;51.10
9116;DHT22;4593;53.652;10.168;2023-05-10T07:38:24;18.00;51.10
9116;DHT22;4593;53.652;10.168;2023-05-10T07:40:49;18.10;50.50
9116;DHT22;4593;53.652;10.168;2023-05-10T07:43:15;18.10;50.80
9116;DHT22;4593;53.652;10.168;2023-05-10T07:45:41;18.00;50.40
9116;DHT22;4593;53.652;10.168;2023-05-10T07:48:07;18.00;49.60
9116;DHT22;4593;53.652;10.168;2023-05-10T07:50:32;18.00;49.60
9116;DHT22;4593;53.652;10.168;2023-05-10T07:52:58;18.10;49.40
9116;DHT22;4593;53.652;10.168;2023-05-10T07:55:24;18.10;51.00
9116;DHT22;4593;53.652;10.168;2023-05-10T07:57:49;18.30;49.80
9116;DHT22;4593;53.652;10.168;2023-05-10T08:00:19;18.70;50.80
9116;DHT22;4593;53.652;10.168;2023-05-10T08:02:45;18.90;48.50
9116;DHT22;4593;53.652;10.168;2023-05-10T08:05:11;18.90;47.40
9116;DHT22;4593;53.652;10.168;2023-05-10T08:07:37;19.10;47.80
9116;DHT22;4593;53.652;10.168;2023-05-10T08:10:03;19.10;49.10
9116;DHT22;4593;53.652;10.168;2023-05-10T08:12:28;19.30;48.10
9116;DHT22;4593;53.652;10.168;2023-05-10T08:14:54;19.40;48.30
9116;DHT22;4593;53.652;10.168;2023-05-10T08:17:20;19.50;48.00
9116;DHT22;4593;53.652;10.168;2023-05-10T08:19:45;19.70;48.50
9116;DHT22;4593;53.652;10.168;2023-05-10T08:22:11;19.90;47.90
9116;DHT22;4593;53.652;10.168;2023-05-10T08:24:37;19.40;46.50
9116;DHT22;4593;53.652;10.168;2023-05-10T08:27:07;19.10;48.30
9116;DHT22;4593;53.652;10.168;2023-05-10T08:29:32;19.10;48.20
9116;DHT22;4593;53.652;10.168;2023-05-10T08:31:58;19.10;47.80
9116;DHT22;4593;53.652;10.168;2023-05-10T08:34:24;19.20;48.00
9116;DHT22;4593;53.652;10.168;2023-05-10T08:36:50;19.20;47.70
9116;DHT22;4593;53.652;10.168;2023-05-10T08:39:16;18.90;47.60
9116;DHT22;4593;53.652;10.168;2023-05-10T08:41:44;18.50;49.30
9116;DHT22;4593;53.652;10.168;2023-05-10T08:44:10;18.50;51.40
9116;DHT22;4593;53.652;10.168;2023-05-10T08:46:37;19.00;50.20
9116;DHT22;4593;53.652;10.168;2023-05-10T08:49:06;19.40;49.10
9116;DHT22;4593;53.652;10.168;2023-05-10T08:51:36;19.70;47.00
9116;DHT22;4593;53.652;10.168;2023-05-10T08:54:03;19.80;48.00
9116;DHT22;4593;53.652;10.168;2023-05-10T08:56:29;20.10;46.10
9116;DHT22;4593;53.652;10.168;2023-05-10T08:58:55;20.30;46.70
9116;DHT22;4593;53.652;10.168;2023-05-10T09:01:21;20.50;46.40
9116;DHT22;4593;53.652;10.168;2023-05-10T09:03:47;20.80;44.50
9116;DHT22;4593;53.652;10.168;2023-05-10T09:06:13;21.00;44.70
9116;DHT22;4593;53.652;10.168;2023-05-10T09:08:41;21.00;44.20
9116;DHT22;4593;53.652;10.168;2023-05-10T09:11:08;21.20;44.90
9116;DHT22;4593;53.652;10.168;2023-05-10T09:13:35;21.60;45.10
9116;DHT22;4593;53.652;10.168;2023-05-10T09:16:02;21.80;43.20
9116;DHT22;4593;53.652;10.168;2023-05-10T09:18:28;22.00;42.00
9116;DHT22;4593;53.652;10.168;2023-05-10T09:20:54;21.40;41.90
9116;DHT22;4593;53.652;10.168;2023-05-10T09:23:20;20.70;43.00
9116;DHT22;4593;53.652;10.168;2023-05-10T09:25:46;20.70;44.50
9116;DHT22;4593;53.652;10.168;2023-05-10T09:28:13;20.70;44.80
9116;DHT22;4593;53.652;10.168;2023-05-10T09:30:39;20.70;44.70
9116;DHT22;4593;53.652;10.168;2023-05-10T09:33:05;20.60;45.90
9116;DHT22;4593;53.652;10.168;2023-05-10T09:35:32;20.60;45.10
9116;DHT22;4593;53.652;10.168;2023-05-10T09:38:03;20.70;45.60
9116;DHT22;4593;53.652;10.168;2023-05-10T09:40:30;20.60;47.00
9116;DHT22;4593;53.652;10.168;2023-05-10T09:43:00;20.70;46.00
9116;DHT22;4593;53.652;10.168;2023-05-10T09:45:29;20.80;44.60
9116;DHT22;4593;53.652;10.168;2023-05-10T09:47:56;20.50;44.50
9116;DHT22;4593;53.652;10.168;2023-05-10T09:50:23;20.40;46.10
9116;DHT22;4593;53.652;10.168;2023-05-10T09:52:53;20.50;45.90
9116;DHT22;4593;53.652;10.168;2023-05-10T09:55:21;20.70;46.30
9116;DHT22;4593;53.652;10.168;2023-05-10T09:57:48;20.90;46.60
9116;DHT22;4593;53.652;10.168;2023-05-10T10:00:18;21.10;46.30
9116;DHT22;4593;53.652;10.168;2023-05-10T10:02:53;21.20;46.50
9116;DHT22;4593;53.652;10.168;2023-05-10T10:05:20;21.30;47.10
9116;DHT22;4593;53.652;10.168;2023-05-10T10:07:45;21.50;45.90
9116;DHT22;4593;53.652;10.168;2023-05-10T10:10:11;21.30;44.40
9116;DHT22;4593;53.652;10.168;2023-05-10T10:12:39;20.90;45.50
9116;DHT22;4593;53.652;10.168;2023-05-10T10:15:07;20.40;46.60
9116;DHT22;4593;53.652;10.168;2023-05-10T10:17:35;19.80;47.90
9116;DHT22;4593;53.652;10.168;2023-05-10T10:20:02;19.40;49.20
9116;DHT22;4593;53.652;10.168;2023-05-10T10:22:28;19.00;50.10
9116;DHT22;4593;53.652;10.168;2023-05-10T10:24:54;18.70;52.40
9116;DHT22;4593;53.652;10.168;2023-05-10T10:27:28;18.30;54.00
9116;DHT22;4593;53.652;10.168;2023-05-10T10:30:09;18.10;56.30
9116;DHT22;4593;53.652;10.168;2023-05-10T10:32:59;17.90;56.50
9116;DHT22;4593;53.652;10.168;2023-05-10T10:35:30;18.00;57.60
9116;DHT22;4593;53.652;10.168;2023-05-10T10:37:57;18.20;57.60
9116;DHT22;4593;53.652;10.168;2023-05-10T10:42:53;18.50;56.50
9116;DHT22;4593;53.652;10.168;2023-05-10T10:45:20;18.50;57.40
9116;DHT22;4593;53.652;10.168;2023-05-10T10:47:46;18.50;59.00
9116;DHT22;4593;53.652;10.168;2023-05-10T10:50:12;18.40;60.50
9116;DHT22;4593;53.652;10.168;2023-05-10T10:52:45;18.40;62.00
9116;DHT22;4593;53.652;10.168;2023-05-10T10:55:18;18.20;63.80
9116;DHT22;4593;53.652;10.168;2023-05-10T10:57:48;18.20;65.10
9116;DHT22;4593;53.652;10.168;2023-05-10T11:00:32;18.10;66.10
9116;DHT22;4593;53.652;10.168;2023-05-10T11:03:12;18.10;66.40
9116;DHT22;4593;53.652;10.168;2023-05-10T11:05:45;18.30;67.50
9116;DHT22;4593;53.652;10.168;2023-05-10T11:08:27;18.40;67.50
9116;DHT22;4593;53.652;10.168;2023-05-10T11:15:54;18.50;67.60
9116;DHT22;4593;53.652;10.168;2023-05-10T11:18:31;18.50;68.30
9116;DHT22;4593;53.652;10.168;2023-05-10T11:21:01;18.50;68.90
9116;DHT22;4593;53.652;10.168;2023-05-10T11:26:12;18.50;69.50
9116;DHT22;4593;53.652;10.168;2023-05-10T11:28:43;18.60;69.50
9116;DHT22;4593;53.652;10.168;2023-05-10T11:31:08;18.90;68.90
9116;DHT22;4593;53.652;10.168;2023-05-10T11:33:49;19.10;67.20
9116;DHT22;4593;53.652;10.168;2023-05-10T11:36:19;19.20;66.90
9116;DHT22;4593;53.652;10.168;2023-05-10T11:38:46;19.40;67.30
9116;DHT22;4593;53.652;10.168;2023-05-10T11:41:12;19.50;66.40
9116;DHT22;4593;53.652;10.168;2023-05-10T11:43:39;19.70;66.40
9116;DHT22;4593;53.652;10.168;2023-05-10T11:46:06;19.70;64.80
9116;DHT22;4593;53.652;10.168;2023-05-10T11:48:32;19.70;65.20
9116;DHT22;4593;53.652;10.168;2023-05-10T11:50:58;19.80;66.40
9116;DHT22;4593;53.652;10.168;2023-05-10T11:53:28;19.90;64.50
9116;DHT22;4593;53.652;10.168;2023-05-10T11:55:54;19.90;65.50
9116;DHT22;4593;53.652;10.168;2023-05-10T11:58:20;20.20;65.70
9116;DHT22;4593;53.652;10.168;2023-05-10T12:00:48;20.30;65.50
9116;DHT22;4593;53.652;10.168;2023-05-10T12:03:13;20.50;64.90
9116;DHT22;4593;53.652;10.168;2023-05-10T12:05:39;20.50;63.60
9116;DHT22;4593;53.652;10.168;2023-05-10T12:08:14;20.50;64.00
9116;DHT22;4593;53.652;10.168;2023-05-10T12:10:40;20.60;64.90
9116;DHT22;4593;53.652;10.168;2023-05-10T12:13:13;20.60;65.00
9116;DHT22;4593;53.652;10.168;2023-05-10T12:15:42;20.60;65.10
9116;DHT22;4593;53.652;10.168;2023-05-10T12:18:09;20.60;64.70
9116;DHT22;4593;53.652;10.168;2023-05-10T12:20:36;20.70;64.80
9116;DHT22;4593;53.652;10.168;2023-05-10T12:23:02;20.50;65.10
9116;DHT22;4593;53.652;10.168;2023-05-10T12:25:33;20.60;66.10
9116;DHT22;4593;53.652;10.168;2023-05-10T12:28:02;20.60;64.70
9116;DHT22;4593;53.652;10.168;2023-05-10T12:30:30;20.50;64.30
9116;DHT22;4593;53.652;10.168;2023-05-10T12:33:10;20.40;64.40
9116;DHT22;4593;53.652;10.168;2023-05-10T12:35:49;20.30;64.70
9116;DHT22;4593;53.652;10.168;2023-05-10T12:40:56;20.30;65.90
9116;DHT22;4593;53.652;10.168;2023-05-10T12:43:22;20.30;65.00
9116;DHT22;4593;53.652;10.168;2023-05-10T12:45:47;20.10;65.70
9116;DHT22;4593;53.652;10.168;2023-05-10T12:48:14;19.80;66.50
9116;DHT22;4593;53.652;10.168;2023-05-10T12:50:40;19.60;66.70
9116;DHT22;4593;53.652;10.168;2023-05-10T12:53:06;19.40;67.30
9116;DHT22;4593;53.652;10.168;2023-05-10T12:55:31;19.20;68.10
9116;DHT22;4593;53.652;10.168;2023-05-10T12:57:57;19.00;68.50
9116;DHT22;4593;53.652;10.168;2023-05-10T13:00:23;19.00;69.10
9116;DHT22;4593;53.652;10.168;2023-05-10T13:02:49;19.00;69.60
9116;DHT22;4593;53.652;10.168;2023-05-10T13:05:14;19.00;69.60
9116;DHT22;4593;53.652;10.168;2023-05-10T13:07:40;18.80;70.20
9116;DHT22;4593;53.652;10.168;2023-05-10T13:10:06;19.00;70.40
9116;DHT22;4593;53.652;10.168;2023-05-10T13:12:32;19.20;69.30
9116;DHT22;4593;53.652;10.168;2023-05-10T13:14:58;19.60;67.90
9116;DHT22;4593;53.652;10.168;2023-05-10T13:17:25;20.00;67.90
9116;DHT22;4593;53.652;10.168;2023-05-10T13:19:51;20.20;68.40
9116;DHT22;4593;53.652;10.168;2023-05-10T13:22:17;20.40;68.20
9116;DHT22;4593;53.652;10.168;2023-05-10T13:24:42;20.70;67.60
9116;DHT22;4593;53.652;10.168;2023-05-10T13:27:08;20.90;66.80
9116;DHT22;4593;53.652;10.168;2023-05-10T13:29:34;21.20;65.20
9116;DHT22;4593;53.652;10.168;2023-05-10T13:32:00;21.10;64.00
9116;DHT22;4593;53.652;10.168;2023-05-10T13:34:26;21.10;64.10
9116;DHT22;4593;53.652;10.168;2023-05-10T13:36:53;21.20;64.70
9116;DHT22;4593;53.652;10.168;2023-05-10T13:39:20;21.10;62.90
9116;DHT22;4593;53.652;10.168;2023-05-10T13:41:46;20.90;64.10
9116;DHT22;4593;53.652;10.168;2023-05-10T13:44:15;20.90;63.60
9116;DHT22;4593;53.652;10.168;2023-05-10T13:46:41;20.50;62.60
9116;DHT22;4593;53.652;10.168;2023-05-10T13:49:08;20.10;64.10
9116;DHT22;4593;53.652;10.168;2023-05-10T13:51:35;19.90;65.60
9116;DHT22;4593;53.652;10.168;2023-05-10T13:54:02;20.10;67.50
9116;DHT22;4593;53.652;10.168;2023-05-10T13:56:27;20.20;64.80
9116;DHT22;4593;53.652;10.168;2023-05-10T14:03:47;20.00;65.60
9116;DHT22;4593;53.652;10.168;2023-05-10T14:06:13;19.90;65.80
9116;DHT22;4593;53.652;10.168;2023-05-10T14:08:39;19.90;66.80
9116;DHT22;4593;53.652;10.168;2023-05-10T14:11:05;20.10;67.00
9116;DHT22;4593;53.652;10.168;2023-05-10T14:13:31;20.30;65.60
9116;DHT22;4593;53.652;10.168;2023-05-10T14:15:56;20.70;65.70
9116;DHT22;4593;53.652;10.168;2023-05-10T14:18:22;21.00;64.20
9116;DHT22;4593;53.652;10.168;2023-05-10T14:20:48;21.20;62.70
9116;DHT22;4593;53.652;10.168;2023-05-10T14:23:14;21.30;62.30
9116;DHT22;4593;53.652;10.168;2023-05-10T14:25:40;21.20;64.10
9116;DHT22;4593;53.652;10.168;2023-05-10T14:28:06;21.30;64.50
9116;DHT22;4593;53.652;10.168;2023-05-10T14:30:32;21.30;63.40
9116;DHT22;4593;53.652;10.168;2023-05-10T14:33:00;21.20;63.60
9116;DHT22;4593;53.652;10.168;2023-05-10T14:35:27;21.30;64.70
9116;DHT22;4593;53.652;10.168;2023-05-10T14:37:53;21.10;63.60
9116;DHT22;4593;53.652;10.168;2023-05-10T14:40:18;21.00;65.40
9116;DHT22;4593;53.652;10.168;2023-05-10T14:42:44;20.80;63.70
9116;DHT22;4593;53.652;10.168;2023-05-10T14:45:10;20.50;65.10
9116;DHT22;4593;53.652;10.168;2023-05-10T14:47:36;20.30;64.60
9116;DHT22;4593;53.652;10.168;2023-05-10T14:50:02;20.20;65.40
9116;DHT22;4593;53.652;10.168;2023-05-10T14:52:29;20.30;65.50
9116;DHT22;4593;53.652;10.168;2023-05-10T14:54:55;20.40;65.40
9116;DHT22;4593;53.652;10.168;2023-05-10T14:57:20;20.50;65.40
9116;DHT22;4593;53.652;10.168;2023-05-10T14:59:46;20.30;65.70
9116;DHT22;4593;53.652;10.168;2023-05-10T15:02:12;20.20;65.40
9116;DHT22;4593;53.652;10.168;2023-05-10T15:04:38;20.30;64.90
9116;DHT22;4593;53.652;10.168;2023-05-10T15:07:03;20.40;65.00
9116;DHT22;4593;53.652;10.168;2023-05-10T15:09:29;20.70;65.40
9116;DHT22;4593;53.652;10.168;2023-05-10T15:11:55;20.90;64.30
9116;DHT22;4593;53.652;10.168;2023-05-10T15:14:21;20.80;63.50
9116;DHT22;4593;53.652;10.168;2023-05-10T15:16:47;20.90;64.90
9116;DHT22;4593;53.652;10.168;2023-05-10T15:19:12;20.90;63.40
9116;DHT22;4593;53.652;10.168;2023-05-10T15:21:38;20.80;63.90
9116;DHT22;4593;53.652;10.168;2023-05-10T15:24:07;20.80;63.80
9116;DHT22;4593;53.652;10.168;2023-05-10T15:26:33;20.90;63.80
9116;DHT22;4593;53.652;10.168;2023-05-10T15:28:59;21.00;63.00
9116;DHT22;4593;53.652;10.168;2023-05-10T15:31:24;21.10;62.10
9116;DHT22;4593;53.652;10.168;2023-05-10T15:33:50;21.10;61.00
9116;DHT22;4593;53.652;10.168;2023-05-10T15:36:16;21.10;61.20
9116;DHT22;4593;53.652;10.168;2023-05-10T15:38:43;21.00;61.50
9116;DHT22;4593;53.652;10.168;2023-05-10T15:41:09;21.10;62.00
9116;DHT22;4593;53.652;10.168;2023-05-10T15:43:35;21.20;61.50
9116;DHT22;4593;53.652;10.168;2023-05-10T15:46:01;21.30;60.70
9116;DHT22;4593;53.652;10.168;2023-05-10T15:48:27;21.30;61.30
9116;DHT22;4593;53.652;10.168;2023-05-10T15:50:52;21.40;61.40
9116;DHT22;4593;53.652;10.168;2023-05-10T15:53:18;21.20;60.60
9116;DHT22;4593;53.652;10.168;2023-05-10T15:55:44;21.20;60.90
9116;DHT22;4593;53.652;10.168;2023-05-10T15:58:10;21.30;62.30
9116;DHT22;4593;53.652;10.168;2023-05-10T16:00:35;21.40;61.50
9116;DHT22;4593;53.652;10.168;2023-05-10T16:03:01;21.20;60.70
9116;DHT22;4593;53.652;10.168;2023-05-10T16:05:27;20.80;60.10
9116;DHT22;4593;53.652;10.168;2023-05-10T16:07:56;20.70;62.00
9116;DHT22;4593;53.652;10.168;2023-05-10T16:10:22;20.50;63.00
9116;DHT22;4593;53.652;10.168;2023-05-10T16:12:47;20.40;63.80
9116;DHT22;4593;53.652;10.168;2023-05-10T16:15:13;20.30;64.30
9116;DHT22;4593;53.652;10.168;2023-05-10T16:17:39;20.40;64.10
9116;DHT22;4593;53.652;10.168;2023-05-10T16:20:06;20.30;64.00